sensor_id;sensor_type;location;lat;lon;timestamp;temperature;humidity
60848;DHT22;46681;47.696;9.140;2024-01-15T00:02:05;10.20;42.50
60848;DHT22;46681;47.696;9.140;2024-01-15T00:04:35;10.20;42.40
60848;DHT22;46681;47.696;9.140;2024-01-15T00:07:01;10.20;42.40
60848;DHT22;46681;47.696;9.140;2024-01-15T00:09:26;10.30;42.40
60848;DHT22;46681;47.696;9.140;2024-01-15T00:11:52;10.20;42.40
60848;DHT22;46681;47.696;9.140;2024-01-15T00:14:17;10.20;42.40
60848;DHT22;46681;47.696;9.140;2024-01-15T00:16:43;10.20;42.50
60848;DHT22;46681;47.696;9.140;2024-01-15T00:19:08;10.20;42.60
60848;DHT22;46681;47.696;9.140;2024-01-15T00:21:33;10.20;42.60
60848;DHT22;46681;47.696;9.140;2024-01-15T00:23:59;10.20;42.50
60848;DHT22;46681;47.696;9.140;2024-01-15T00:26:24;10.20;42.50
60848;DHT22;46681;47.696;9.140;2024-01-15T00:28:50;10.20;42.50
60848;DHT22;46681;47.696;9.140;2024-01-15T00:31:16;10.20;42.50
60848;DHT22;46681;47.696;9.140;2024-01-15T00:33:42;10.20;42.60
60848;DHT22;46681;47.696;9.140;2024-01-15T00:36:07;10.10;42.50
60848;DHT22;46681;47.696;9.140;2024-01-15T00:38:35;10.10;42.60
60848;DHT22;46681;47.696;9.140;2024-01-15T00:41:00;10.10;43.00
60848;DHT22;46681;47.696;9.140;2024-01-15T00:43:26;10.10;42.70
60848;DHT22;46681;47.696;9.140;2024-01-15T00:45:51;10.10;42.60
60848;DHT22;46681;47.696;9.140;2024-01-15T00:48:17;10.10;42.60
60848;DHT22;46681;47.696;9.140;2024-01-15T00:50:43;10.10;42.70
60848;DHT22;46681;47.696;9.140;2024-01-15T00:53:09;10.10;42.60
60848;DHT22;46681;47.696;9.140;2024-01-15T00:55:34;10.10;42.60
60848;DHT22;46681;47.696;9.140;2024-01-15T00:58:00;10.10;42.60
60848;DHT22;46681;47.696;9.140;2024-01-15T01:00:25;10.10;42.60
60848;DHT22;46681;47.696;9.140;2024-01-15T01:02:51;10.10;42.70
60848;DHT22;46681;47.696;9.140;2024-01-15T01:05:17;10.10;43.10
60848;DHT22;46681;47.696;9.140;2024-01-15T01:07:43;10.20;42.60
60848;DHT22;46681;47.696;9.140;2024-01-15T01:10:08;10.20;42.70
60848;DHT22;46681;47.696;9.140;2024-01-15T01:12:34;10.20;42.70
60848;DHT22;46681;47.696;9.140;2024-01-15T01:14:59;10.20;42.70
60848;DHT22;46681;47.696;9.140;2024-01-15T01:17:28;10.20;42.70
60848;DHT22;46681;47.696;9.140;2024-01-15T01:19:54;10.10;42.70
60848;DHT22;46681;47.696;9.140;2024-01-15T01:22:20;10.10;42.70
60848;DHT22;46681;47.696;9.140;2024-01-15T01:24:45;10.10;42.70
60848;DHT22;46681;47.696;9.140;2024-01-15T01:27:11;10.10;42.80
60848;DHT22;46681;47.696;9.140;2024-01-15T01:29:36;10.10;42.70
60848;DHT22;46681;47.696;9.140;2024-01-15T01:32:04;10.20;42.70
60848;DHT22;46681;47.696;9.140;2024-01-15T01:34:32;10.20;42.70
60848;DHT22;46681;47.696;9.140;2024-01-15T01:36:59;10.20;42.70
60848;DHT22;46681;47.696;9.140;2024-01-15T01:39:25;10.30;42.70
60848;DHT22;46681;47.696;9.140;2024-01-15T01:41:50;10.20;42.70
60848;DHT22;46681;47.696;9.140;2024-01-15T01:44:19;10.20;42.60
60848;DHT22;46681;47.696;9.140;2024-01-15T01:46:45;10.30;42.60
60848;DHT22;46681;47.696;9.140;2024-01-15T01:49:10;10.30;42.60
60848;DHT22;46681;47.696;9.140;2024-01-15T01:51:36;10.30;42.60
60848;DHT22;46681;47.696;9.140;2024-01-15T01:54:03;10.30;42.60
60848;DHT22;46681;47.696;9.140;2024-01-15T01:56:32;10.30;42.60
60848;DHT22;46681;47.696;9.140;2024-01-15T01:58:58;10.30;42.50
60848;DHT22;46681;47.696;9.140;2024-01-15T02:01:24;10.40;42.50
60848;DHT22;46681;47.696;9.140;2024-01-15T02:03:49;10.40;42.50
60848;DHT22;46681;47.696;9.140;2024-01-15T02:06:15;10.40;42.50
60848;DHT22;46681;47.696;9.140;2024-01-15T02:08:43;10.40;42.50
60848;DHT22;46681;47.696;9.140;2024-01-15T02:11:09;10.50;42.50
60848;DHT22;46681;47.696;9.140;2024-01-15T02:13:34;10.50;42.50
60848;DHT22;46681;47.696;9.140;2024-01-15T02:16:00;10.50;42.40
60848;DHT22;46681;47.696;9.140;2024-01-15T02:18:25;10.50;42.40
60848;DHT22;46681;47.696;9.140;2024-01-15T02:20:51;10.50;42.40
60848;DHT22;46681;47.696;9.140;2024-01-15T02:23:17;10.50;42.40
60848;DHT22;46681;47.696;9.140;2024-01-15T02:25:44;10.50;42.40
60848;DHT22;46681;47.696;9.140;2024-01-15T02:28:17;10.50;42.40
60848;DHT22;46681;47.696;9.140;2024-01-15T02:30:43;10.50;42.30
60848;DHT22;46681;47.696;9.140;2024-01-15T02:33:10;10.50;42.40
60848;DHT22;46681;47.696;9.140;2024-01-15T02:35:36;10.50;42.30
60848;DHT22;46681;47.696;9.140;2024-01-15T02:38:01;10.40;42.30
60848;DHT22;46681;47.696;9.140;2024-01-15T02:40:32;10.40;42.30
60848;DHT22;46681;47.696;9.140;2024-01-15T02:42:58;10.40;42.30
60848;DHT22;46681;47.696;9.140;2024-01-15T02:45:23;10.40;42.30
60848;DHT22;46681;47.696;9.140;2024-01-15T02:47:50;10.40;42.20
60848;DHT22;46681;47.696;9.140;2024-01-15T02:50:16;10.40;42.20
60848;DHT22;46681;47.696;9.140;2024-01-15T02:52:42;10.40;42.20
60848;DHT22;46681;47.696;9.140;2024-01-15T02:55:08;10.30;42.20
60848;DHT22;46681;47.696;9.140;2024-01-15T02:57:37;10.30;42.20
60848;DHT22;46681;47.696;9.140;2024-01-15T03:00:03;10.30;42.20
60848;DHT22;46681;47.696;9.140;2024-01-15T03:02:31;10.40;42.20
60848;DHT22;46681;47.696;9.140;2024-01-15T03:05:03;10.40;42.10
60848;DHT22;46681;47.696;9.140;2024-01-15T06:38:31;11.60;41.90
60848;DHT22;46681;47.696;9.140;2024-01-15T13:20:44;14.00;36.70
60848;DHT22;46681;47.696;9.140;2024-01-15T13:57:16;12.00;39.40
60848;DHT22;46681;47.696;9.140;2024-01-15T14:06:12;11.80;40.70
60848;DHT22;46681;47.696;9.140;2024-01-15T14:08:41;11.80;40.30
60848;DHT22;46681;47.696;9.140;2024-01-15T14:11:12;11.70;40.20
60848;DHT22;46681;47.696;9.140;2024-01-15T14:13:38;11.70;40.20
60848;DHT22;46681;47.696;9.140;2024-01-15T14:16:08;11.60;40.10
60848;DHT22;46681;47.696;9.140;2024-01-15T14:18:40;11.60;40.00
60848;DHT22;46681;47.696;9.140;2024-01-15T14:21:10;11.50;39.90
60848;DHT22;46681;47.696;9.140;2024-01-15T14:23:35;11.50;39.90
60848;DHT22;46681;47.696;9.140;2024-01-15T14:26:02;11.50;40.00
60848;DHT22;46681;47.696;9.140;2024-01-15T14:28:39;11.50;40.00
60848;DHT22;46681;47.696;9.140;2024-01-15T14:31:06;11.50;40.00
60848;DHT22;46681;47.696;9.140;2024-01-15T14:33:33;11.50;40.00
60848;DHT22;46681;47.696;9.140;2024-01-15T14:36:03;11.50;40.00
60848;DHT22;46681;47.696;9.140;2024-01-15T14:38:35;11.50;40.00
60848;DHT22;46681;47.696;9.140;2024-01-15T14:41:02;11.40;39.90
60848;DHT22;46681;47.696;9.140;2024-01-15T14:43:49;11.40;39.90
60848;DHT22;46681;47.696;9.140;2024-01-15T14:46:26;11.30;39.90
60848;DHT22;46681;47.696;9.140;2024-01-15T14:48:58;11.30;39.90
60848;DHT22;46681;47.696;9.140;2024-01-15T14:51:39;11.20;40.00
60848;DHT22;46681;47.696;9.140;2024-01-15T14:54:16;11.20;40.00
60848;DHT22;46681;47.696;9.140;2024-01-15T14:56:48;11.10;40.00
60848;DHT22;46681;47.696;9.140;2024-01-15T14:59:26;11.10;40.20
60848;DHT22;46681;47.696;9.140;2024-01-15T15:01:52;11.00;40.40
60848;DHT22;46681;47.696;9.140;2024-01-15T15:04:18;11.00;40.60
60848;DHT22;46681;47.696;9.140;2024-01-15T15:06:49;11.00;40.60
60848;DHT22;46681;47.696;9.140;2024-01-15T15:09:20;11.00;41.00
60848;DHT22;46681;47.696;9.140;2024-01-15T15:11:59;11.00;40.60
60848;DHT22;46681;47.696;9.140;2024-01-15T15:14:28;11.00;40.60
60848;DHT22;46681;47.696;9.140;2024-01-15T15:16:58;11.00;40.50
60848;DHT22;46681;47.696;9.140;2024-01-15T15:19:26;11.00;40.50
60848;DHT22;46681;47.696;9.140;2024-01-15T15:21:55;11.00;40.50
60848;DHT22;46681;47.696;9.140;2024-01-15T15:24:25;11.00;42.50
60848;DHT22;46681;47.696;9.140;2024-01-15T15:26:54;11.00;41.50
60848;DHT22;46681;47.696;9.140;2024-01-15T15:29:26;11.00;41.40
60848;DHT22;46681;47.696;9.140;2024-01-15T15:31:52;11.00;41.10
60848;DHT22;46681;47.696;9.140;2024-01-15T15:34:20;11.00;41.00
60848;DHT22;46681;47.696;9.140;2024-01-15T15:36:49;11.00;41.20
60848;DHT22;46681;47.696;9.140;2024-01-15T15:39:15;11.00;41.20
60848;DHT22;46681;47.696;9.140;2024-01-15T15:41:42;10.90;41.10
60848;DHT22;46681;47.696;9.140;2024-01-15T15:44:08;11.00;41.10
60848;DHT22;46681;47.696;9.140;2024-01-15T15:46:38;10.90;41.00
60848;DHT22;46681;47.696;9.140;2024-01-15T15:49:05;11.00;41.00
60848;DHT22;46681;47.696;9.140;2024-01-15T15:51:34;11.00;40.90
60848;DHT22;46681;47.696;9.140;2024-01-15T15:54:03;11.00;40.90
60848;DHT22;46681;47.696;9.140;2024-01-15T15:56:32;10.90;41.00
60848;DHT22;46681;47.696;9.140;2024-01-15T15:59:07;10.90;41.00
60848;DHT22;46681;47.696;9.140;2024-01-15T16:01:40;10.90;40.80
60848;DHT22;46681;47.696;9.140;2024-01-15T16:04:08;10.90;40.80
60848;DHT22;46681;47.696;9.140;2024-01-15T16:06:39;10.80;40.60
60848;DHT22;46681;47.696;9.140;2024-01-15T16:09:05;10.90;43.50
60848;DHT22;46681;47.696;9.140;2024-01-15T16:11:30;11.00;42.30
60848;DHT22;46681;47.696;9.140;2024-01-15T16:13:56;10.90;41.60
60848;DHT22;46681;47.696;9.140;2024-01-15T16:16:22;10.90;41.30
60848;DHT22;46681;47.696;9.140;2024-01-15T16:18:49;10.80;41.10
60848;DHT22;46681;47.696;9.140;2024-01-15T16:21:14;10.80;41.00
60848;DHT22;46681;47.696;9.140;2024-01-15T16:23:40;10.70;41.30
60848;DHT22;46681;47.696;9.140;2024-01-15T16:26:07;10.60;41.00
60848;DHT22;46681;47.696;9.140;2024-01-15T16:28:33;10.60;41.00
60848;DHT22;46681;47.696;9.140;2024-01-15T16:30:58;10.60;40.80
60848;DHT22;46681;47.696;9.140;2024-01-15T16:33:26;10.50;40.60
60848;DHT22;46681;47.696;9.140;2024-01-15T16:35:54;10.60;41.10
60848;DHT22;46681;47.696;9.140;2024-01-15T16:38:21;10.60;40.90
60848;DHT22;46681;47.696;9.140;2024-01-15T16:40:46;10.60;40.90
60848;DHT22;46681;47.696;9.140;2024-01-15T16:43:13;10.50;40.60
60848;DHT22;46681;47.696;9.140;2024-01-15T16:45:42;10.60;40.70
60848;DHT22;46681;47.696;9.140;2024-01-15T16:48:08;10.50;40.50
60848;DHT22;46681;47.696;9.140;2024-01-15T16:50:46;10.50;41.00
60848;DHT22;46681;47.696;9.140;2024-01-15T16:53:17;10.30;41.00
60848;DHT22;46681;47.696;9.140;2024-01-15T16:55:45;10.30;41.00
60848;DHT22;46681;47.696;9.140;2024-01-15T16:58:13;10.30;41.00
60848;DHT22;46681;47.696;9.140;2024-01-15T17:00:47;10.40;41.60
60848;DHT22;46681;47.696;9.140;2024-01-15T17:03:19;10.40;41.10
60848;DHT22;46681;47.696;9.140;2024-01-15T17:05:46;10.30;40.90
60848;DHT22;46681;47.696;9.140;2024-01-15T17:08:11;10.40;40.90
60848;DHT22;46681;47.696;9.140;2024-01-15T17:10:37;10.40;40.70
60848;DHT22;46681;47.696;9.140;2024-01-15T17:13:08;10.40;40.70
60848;DHT22;46681;47.696;9.140;2024-01-15T17:15:39;10.40;40.60
60848;DHT22;46681;47.696;9.140;2024-01-15T17:18:05;10.40;40.60
60848;DHT22;46681;47.696;9.140;2024-01-15T17:20:38;10.40;40.50
60848;DHT22;46681;47.696;9.140;2024-01-15T17:23:05;10.40;40.50
60848;DHT22;46681;47.696;9.140;2024-01-15T17:25:35;10.40;40.40
60848;DHT22;46681;47.696;9.140;2024-01-15T17:28:01;10.40;40.30
60848;DHT22;46681;47.696;9.140;2024-01-15T17:30:27;10.40;40.30
60848;DHT22;46681;47.696;9.140;2024-01-15T17:32:53;10.40;40.40
60848;DHT22;46681;47.696;9.140;2024-01-15T17:35:18;10.50;40.80
60848;DHT22;46681;47.696;9.140;2024-01-15T17:37:45;10.50;40.30
60848;DHT22;46681;47.696;9.140;2024-01-15T17:40:12;10.40;40.30
60848;DHT22;46681;47.696;9.140;2024-01-15T17:42:43;10.50;40.30
60848;DHT22;46681;47.696;9.140;2024-01-15T17:45:20;10.50;40.30
60848;DHT22;46681;47.696;9.140;2024-01-15T17:47:49;10.60;40.30
60848;DHT22;46681;47.696;9.140;2024-01-15T17:50:15;10.50;40.20
60848;DHT22;46681;47.696;9.140;2024-01-15T17:52:45;10.60;40.30
60848;DHT22;46681;47.696;9.140;2024-01-15T17:55:12;10.80;44.30
60848;DHT22;46681;47.696;9.140;2024-01-15T17:57:39;11.10;44.80
60848;DHT22;46681;47.696;9.140;2024-01-15T18:00:05;11.10;43.10
60848;DHT22;46681;47.696;9.140;2024-01-15T18:02:32;11.10;42.40
60848;DHT22;46681;47.696;9.140;2024-01-15T18:04:59;11.10;42.00
60848;DHT22;46681;47.696;9.140;2024-01-15T18:07:24;11.00;41.70
60848;DHT22;46681;47.696;9.140;2024-01-15T18:09:50;11.10;41.50
60848;DHT22;46681;47.696;9.140;2024-01-15T18:12:15;11.00;41.30
60848;DHT22;46681;47.696;9.140;2024-01-15T18:14:42;11.00;41.20
60848;DHT22;46681;47.696;9.140;2024-01-15T18:17:11;11.00;41.10
60848;DHT22;46681;47.696;9.140;2024-01-15T18:19:37;11.00;40.90
60848;DHT22;46681;47.696;9.140;2024-01-15T18:22:03;10.90;40.80
60848;DHT22;46681;47.696;9.140;2024-01-15T18:24:30;10.90;40.70
60848;DHT22;46681;47.696;9.140;2024-01-15T18:26:56;10.80;40.60
60848;DHT22;46681;47.696;9.140;2024-01-15T18:29:22;10.80;40.70
60848;DHT22;46681;47.696;9.140;2024-01-15T18:31:48;10.80;40.70
60848;DHT22;46681;47.696;9.140;2024-01-15T18:34:14;10.80;40.60
60848;DHT22;46681;47.696;9.140;2024-01-15T18:36:39;10.80;40.60
60848;DHT22;46681;47.696;9.140;2024-01-15T18:39:05;10.80;40.60
60848;DHT22;46681;47.696;9.140;2024-01-15T18:41:31;10.80;40.60
60848;DHT22;46681;47.696;9.140;2024-01-15T18:43:56;10.70;40.60
60848;DHT22;46681;47.696;9.140;2024-01-15T18:46:22;10.70;40.60
60848;DHT22;46681;47.696;9.140;2024-01-15T18:48:55;10.70;40.60
60848;DHT22;46681;47.696;9.140;2024-01-15T18:51:24;10.70;40.40
60848;DHT22;46681;47.696;9.140;2024-01-15T18:53:52;10.70;40.50
60848;DHT22;46681;47.696;9.140;2024-01-15T18:56:20;10.70;40.50
60848;DHT22;46681;47.696;9.140;2024-01-15T18:58:45;10.70;40.50
60848;DHT22;46681;47.696;9.140;2024-01-15T19:01:24;10.70;40.50
60848;DHT22;46681;47.696;9.140;2024-01-15T19:03:51;10.70;40.40
60848;DHT22;46681;47.696;9.140;2024-01-15T19:06:19;10.60;40.40
60848;DHT22;46681;47.696;9.140;2024-01-15T19:08:45;10.60;40.40
60848;DHT22;46681;47.696;9.140;2024-01-15T19:11:11;10.60;40.80
60848;DHT22;46681;47.696;9.140;2024-01-15T19:13:37;10.60;41.30
60848;DHT22;46681;47.696;9.140;2024-01-15T19:16:09;10.70;43.90
60848;DHT22;46681;47.696;9.140;2024-01-15T19:18:36;10.80;42.10
60848;DHT22;46681;47.696;9.140;2024-01-15T19:21:02;10.70;41.60
60848;DHT22;46681;47.696;9.140;2024-01-15T19:23:30;10.70;41.40
60848;DHT22;46681;47.696;9.140;2024-01-15T19:25:55;10.70;41.20
60848;DHT22;46681;47.696;9.140;2024-01-15T19:28:23;10.60;41.10
60848;DHT22;46681;47.696;9.140;2024-01-15T19:30:49;10.60;41.10
60848;DHT22;46681;47.696;9.140;2024-01-15T19:33:18;10.70;41.00
60848;DHT22;46681;47.696;9.140;2024-01-15T19:35:44;10.60;40.90
60848;DHT22;46681;47.696;9.140;2024-01-15T19:38:10;10.60;40.80
60848;DHT22;46681;47.696;9.140;2024-01-15T19:40:35;10.60;40.80
60848;DHT22;46681;47.696;9.140;2024-01-15T19:43:01;10.60;40.80
60848;DHT22;46681;47.696;9.140;2024-01-15T19:45:28;10.60;40.80
60848;DHT22;46681;47.696;9.140;2024-01-15T19:48:01;10.60;40.70
60848;DHT22;46681;47.696;9.140;2024-01-15T19:50:29;10.50;40.70
60848;DHT22;46681;47.696;9.140;2024-01-15T19:52:54;10.60;40.70
60848;DHT22;46681;47.696;9.140;2024-01-15T19:55:20;10.50;40.70
60848;DHT22;46681;47.696;9.140;2024-01-15T19:57:47;10.50;40.60
60848;DHT22;46681;47.696;9.140;2024-01-15T20:00:15;10.50;41.20
60848;DHT22;46681;47.696;9.140;2024-01-15T20:02:41;10.60;43.10
60848;DHT22;46681;47.696;9.140;2024-01-15T20:05:07;10.70;42.70
60848;DHT22;46681;47.696;9.140;2024-01-15T20:07:36;10.70;41.90
60848;DHT22;46681;47.696;9.140;2024-01-15T20:10:03;10.70;41.60
60848;DHT22;46681;47.696;9.140;2024-01-15T20:12:34;10.60;41.40
60848;DHT22;46681;47.696;9.140;2024-01-15T20:14:59;10.60;41.40
60848;DHT22;46681;47.696;9.140;2024-01-15T20:17:29;10.60;41.40
60848;DHT22;46681;47.696;9.140;2024-01-15T20:19:55;10.60;41.30
60848;DHT22;46681;47.696;9.140;2024-01-15T20:22:32;10.60;41.10
60848;DHT22;46681;47.696;9.140;2024-01-15T20:24:59;10.60;41.10
60848;DHT22;46681;47.696;9.140;2024-01-15T20:27:26;10.60;41.00
60848;DHT22;46681;47.696;9.140;2024-01-15T20:29:59;10.60;40.90
60848;DHT22;46681;47.696;9.140;2024-01-15T20:32:26;10.60;40.90
60848;DHT22;46681;47.696;9.140;2024-01-15T20:34:55;10.60;40.90
60848;DHT22;46681;47.696;9.140;2024-01-15T20:37:21;10.60;40.90
60848;DHT22;46681;47.696;9.140;2024-01-15T20:39:46;10.60;40.80
60848;DHT22;46681;47.696;9.140;2024-01-15T20:42:12;10.70;41.20
60848;DHT22;46681;47.696;9.140;2024-01-15T20:44:38;10.70;40.70
60848;DHT22;46681;47.696;9.140;2024-01-15T20:47:05;10.70;40.70
60848;DHT22;46681;47.696;9.140;2024-01-15T20:49:30;10.70;40.70
60848;DHT22;46681;47.696;9.140;2024-01-15T20:51:58;10.70;40.70
60848;DHT22;46681;47.696;9.140;2024-01-15T20:54:24;10.70;40.60
60848;DHT22;46681;47.696;9.140;2024-01-15T20:56:49;10.70;40.60
60848;DHT22;46681;47.696;9.140;2024-01-15T20:59:16;10.70;40.60
60848;DHT22;46681;47.696;9.140;2024-01-15T21:01:42;10.70;40.60
60848;DHT22;46681;47.696;9.140;2024-01-15T21:04:08;10.70;40.50
60848;DHT22;46681;47.696;9.140;2024-01-15T21:06:33;10.70;40.90
60848;DHT22;46681;47.696;9.140;2024-01-15T21:08:59;10.70;40.40
60848;DHT22;46681;47.696;9.140;2024-01-15T21:11:26;10.70;40.40
60848;DHT22;46681;47.696;9.140;2024-01-15T21:13:52;10.70;40.50
60848;DHT22;46681;47.696;9.140;2024-01-15T21:16:17;10.70;40.40
60848;DHT22;46681;47.696;9.140;2024-01-15T21:18:43;10.70;40.40
60848;DHT22;46681;47.696;9.140;2024-01-15T21:21:09;10.70;40.40
60848;DHT22;46681;47.696;9.140;2024-01-15T21:23:34;10.70;40.60
60848;DHT22;46681;47.696;9.140;2024-01-15T21:26:00;10.70;40.40
60848;DHT22;46681;47.696;9.140;2024-01-15T21:28:25;10.70;40.40
60848;DHT22;46681;47.696;9.140;2024-01-15T21:30:52;10.80;40.30
60848;DHT22;46681;47.696;9.140;2024-01-15T21:33:18;10.80;40.30
60848;DHT22;46681;47.696;9.140;2024-01-15T21:35:43;10.70;40.20
60848;DHT22;46681;47.696;9.140;2024-01-15T21:38:09;10.70;40.10
60848;DHT22;46681;47.696;9.140;2024-01-15T21:40:34;10.70;40.50
60848;DHT22;46681;47.696;9.140;2024-01-15T21:43:03;10.70;40.10
60848;DHT22;46681;47.696;9.140;2024-01-15T21:45:31;10.70;40.00
60848;DHT22;46681;47.696;9.140;2024-01-15T21:47:57;10.70;40.00
60848;DHT22;46681;47.696;9.140;2024-01-15T21:50:23;10.70;39.90
60848;DHT22;46681;47.696;9.140;2024-01-15T21:52:48;10.60;39.90
60848;DHT22;46681;47.696;9.140;2024-01-15T21:55:17;10.60;39.80
60848;DHT22;46681;47.696;9.140;2024-01-15T21:57:43;10.60;39.80
60848;DHT22;46681;47.696;9.140;2024-01-15T22:00:09;10.60;39.70
60848;DHT22;46681;47.696;9.140;2024-01-15T22:02:40;10.60;39.70
60848;DHT22;46681;47.696;9.140;2024-01-15T22:05:07;10.60;39.60
60848;DHT22;46681;47.696;9.140;2024-01-15T22:07:33;10.60;39.50
60848;DHT22;46681;47.696;9.140;2024-01-15T22:09:59;10.60;39.50
60848;DHT22;46681;47.696;9.140;2024-01-15T22:12:24;10.60;39.50
60848;DHT22;46681;47.696;9.140;2024-01-15T22:14:50;10.50;39.40
60848;DHT22;46681;47.696;9.140;2024-01-15T22:17:15;10.50;39.50
60848;DHT22;46681;47.696;9.140;2024-01-15T22:19:41;10.50;39.40
60848;DHT22;46681;47.696;9.140;2024-01-15T22:22:06;10.40;39.40
60848;DHT22;46681;47.696;9.140;2024-01-15T22:24:32;10.30;39.40
60848;DHT22;46681;47.696;9.140;2024-01-15T22:26:57;10.30;39.40
60848;DHT22;46681;47.696;9.140;2024-01-15T22:29:23;10.20;39.50
60848;DHT22;46681;47.696;9.140;2024-01-15T22:31:48;10.10;39.40
60848;DHT22;46681;47.696;9.140;2024-01-15T22:34:14;10.10;39.50
60848;DHT22;46681;47.696;9.140;2024-01-15T22:36:39;10.00;39.50
60848;DHT22;46681;47.696;9.140;2024-01-15T22:39:05;10.00;39.50
60848;DHT22;46681;47.696;9.140;2024-01-15T22:41:30;10.00;39.50
60848;DHT22;46681;47.696;9.140;2024-01-15T22:43:56;9.90;39.40
60848;DHT22;46681;47.696;9.140;2024-01-15T22:46:25;9.90;39.40
60848;DHT22;46681;47.696;9.140;2024-01-15T22:48:50;9.90;39.40
60848;DHT22;46681;47.696;9.140;2024-01-15T22:51:16;9.80;39.30
60848;DHT22;46681;47.696;9.140;2024-01-15T22:53:41;9.80;39.30
60848;DHT22;46681;47.696;9.140;2024-01-15T22:56:07;9.80;39.30
60848;DHT22;46681;47.696;9.140;2024-01-15T22:58:36;9.80;39.30
60848;DHT22;46681;47.696;9.140;2024-01-15T23:01:01;9.70;39.20
60848;DHT22;46681;47.696;9.140;2024-01-15T23:03:30;9.70;39.20
60848;DHT22;46681;47.696;9.140;2024-01-15T23:05:56;9.70;39.20
60848;DHT22;46681;47.696;9.140;2024-01-15T23:08:21;9.70;39.20
60848;DHT22;46681;47.696;9.140;2024-01-15T23:10:47;9.60;39.10
60848;DHT22;46681;47.696;9.140;2024-01-15T23:13:15;9.60;39.20
60848;DHT22;46681;47.696;9.140;2024-01-15T23:15:41;9.60;39.20
60848;DHT22;46681;47.696;9.140;2024-01-15T23:18:07;9.60;39.20
60848;DHT22;46681;47.696;9.140;2024-01-15T23:20:32;9.50;39.20
60848;DHT22;46681;47.696;9.140;2024-01-15T23:22:58;9.50;39.20
60848;DHT22;46681;47.696;9.140;2024-01-15T23:25:23;9.50;39.20
60848;DHT22;46681;47.696;9.140;2024-01-15T23:27:49;9.40;39.20
60848;DHT22;46681;47.696;9.140;2024-01-15T23:30:19;9.40;39.20
60848;DHT22;46681;47.696;9.140;2024-01-15T23:32:45;9.40;39.20
60848;DHT22;46681;47.696;9.140;2024-01-15T23:35:14;9.40;39.20
60848;DHT22;46681;47.696;9.140;2024-01-15T23:37:43;9.40;39.20
60848;DHT22;46681;47.696;9.140;2024-01-15T23:40:09;9.30;39.20
60848;DHT22;46681;47.696;9.140;2024-01-15T23:42:35;9.20;39.10
60848;DHT22;46681;47.696;9.140;2024-01-15T23:45:00;9.30;39.20
60848;DHT22;46681;47.696;9.140;2024-01-15T23:47:26;9.20;39.10
60848;DHT22;46681;47.696;9.140;2024-01-15T23:49:51;9.20;39.10
60848;DHT22;46681;47.696;9.140;2024-01-15T23:52:19;9.20;39.10
60848;DHT22;46681;47.696;9.140;2024-01-15T23:54:45;9.20;39.20
60848;DHT22;46681;47.696;9.140;2024-01-15T23:57:10;9.10;39.20
60848;DHT22;46681;47.696;9.140;2024-01-15T23:59:38;9.10;39.10
